Grantham, United Kingdom
Current Conditions -  °F | °C
As of 11:18 AM on Friday 24 Oct 2014 (Local Time) from EGYD Reporting Station
Broken Clouds Broken Clouds  
Wind Chill: 59°   Ceiling: 3300
Heat Index: 59°   Visibility: 6mi
Dew Point: 55°   Wind: 14mph
Humidity: 88%   Direction: 220°SW
Pressure: 29.88"   Gusts: NA
Location:  52.92°N, 0.64°W
Report Text: EGYD 241018Z 22012KT 9999 SCT023 BKN033 BKN100 15/13 Q1012 WHT TEMPO FEW023 BLU
Loading
Personal Weather Stations






























Interactive Weather Map New forecast layout! Learn more

10-Day Weather Forecast

Advertisements
Track Severe Weather on mobile